createdAt,value
2022-10-07T00:00:55.818Z,66.38
2022-10-07T00:03:26.966Z,65.63
2022-10-07T00:06:25.648Z,65.70
2022-10-07T00:08:53.866Z,65.43
2022-10-07T00:11:23.974Z,65.98
2022-10-07T00:13:54.203Z,65.35
2022-10-07T00:16:24.708Z,66.39
2022-10-07T00:18:54.674Z,65.50
2022-10-07T00:21:21.473Z,65.26
2022-10-07T00:23:48.718Z,65.97
2022-10-07T00:26:18.693Z,65.78
2022-10-07T00:28:46.545Z,65.74
2022-10-07T00:31:22.457Z,65.83
2022-10-07T00:33:49.977Z,65.96
2022-10-07T00:36:20.699Z,66.02
2022-10-07T00:39:05.220Z,65.63
2022-10-07T00:41:38.886Z,65.57
2022-10-07T00:44:34.176Z,65.64
2022-10-07T00:47:21.470Z,66.09
2022-10-07T00:49:57.970Z,65.60
2022-10-07T00:52:28.086Z,65.41
2022-10-07T00:54:57.534Z,67.08
2022-10-07T00:57:27.643Z,68.89
2022-10-07T00:59:57.037Z,70.14
2022-10-07T01:02:25.742Z,70.52
2022-10-07T01:04:54.663Z,70.56
2022-10-07T01:07:21.770Z,70.77
2022-10-07T01:09:51.291Z,71.27
2022-10-07T01:12:36.037Z,71.69
2022-10-07T01:15:32.769Z,70.97
2022-10-07T01:18:11.991Z,70.79
2022-10-07T01:20:59.569Z,70.65
2022-10-07T01:23:44.555Z,70.59
2022-10-07T01:26:45.133Z,70.52
2022-10-07T01:29:18.805Z,70.19
2022-10-07T01:31:53.465Z,71.14
2022-10-07T01:34:23.784Z,71.07
2022-10-07T01:36:54.113Z,71.54
2022-10-07T01:39:27.626Z,73.84
2022-10-07T01:41:54.586Z,74.25
2022-10-07T01:44:21.661Z,74.74
2022-10-07T01:46:49.796Z,75.29
2022-10-07T01:49:16.402Z,75.65
2022-10-07T01:51:55.419Z,74.85
2022-10-07T01:54:41.191Z,74.42
2022-10-07T01:57:27.166Z,74.01
2022-10-07T02:00:07.921Z,73.19
2022-10-07T02:03:02.267Z,73.69
2022-10-07T02:05:52.149Z,74.23
2022-10-07T02:08:51.469Z,74.03
2022-10-07T02:11:23.414Z,74.37
2022-10-07T02:14:03.570Z,74.19
2022-10-07T02:16:42.020Z,74.34
2022-10-07T02:19:15.434Z,74.59
2022-10-07T02:21:45.735Z,75.03
2022-10-07T02:24:14.718Z,76.23
2022-10-07T02:26:43.845Z,75.61
2022-10-07T02:29:14.525Z,74.79
2022-10-07T02:31:44.678Z,75.07
2022-10-07T02:34:19.583Z,75.08
2022-10-07T02:37:01.285Z,75.07
2022-10-07T02:39:29.292Z,75.49
2022-10-07T02:42:13.935Z,76.16
2022-10-07T02:44:52.734Z,75.52
2022-10-07T02:47:36.312Z,75.57
2022-10-07T02:50:07.658Z,76.50
2022-10-07T02:52:35.287Z,76.64
2022-10-07T02:55:07.736Z,76.11
2022-10-07T02:57:39.541Z,76.47
2022-10-07T03:00:11.106Z,76.57
2022-10-07T03:02:57.675Z,76.19
2022-10-07T03:05:34.973Z,76.62
2022-10-07T03:08:07.429Z,75.47
2022-10-07T03:10:34.753Z,75.40
2022-10-07T03:13:04.791Z,76.52
2022-10-07T03:15:39.772Z,75.46
2022-10-07T03:18:26.185Z,75.17
2022-10-07T03:20:57.492Z,74.95
2022-10-07T03:23:24.671Z,75.24
2022-10-07T03:25:53.511Z,74.33
2022-10-07T03:28:22.813Z,74.62
2022-10-07T03:30:50.460Z,74.38
2022-10-07T03:33:20.100Z,74.84
2022-10-07T03:35:47.283Z,74.07
2022-10-07T03:38:13.882Z,73.59
2022-10-07T03:40:44.126Z,74.42
2022-10-07T03:43:11.759Z,74.25
2022-10-07T03:45:51.247Z,74.23
2022-10-07T03:48:18.580Z,74.05
2022-10-07T03:50:52.780Z,73.66
2022-10-07T03:53:22.017Z,74.30
2022-10-07T03:55:48.717Z,74.76
2022-10-07T03:58:15.364Z,75.55
2022-10-07T04:00:43.032Z,74.93
2022-10-07T04:03:10.111Z,75.15
2022-10-07T04:05:37.097Z,75.62
2022-10-07T04:08:04.853Z,75.80
2022-10-07T04:10:34.010Z,76.67
2022-10-07T04:13:01.024Z,76.31
2022-10-07T04:15:27.880Z,76.55
2022-10-07T04:17:58.530Z,75.93
2022-10-07T04:20:26.352Z,76.96
2022-10-07T04:22:53.787Z,77.17
2022-10-07T04:25:37.527Z,76.47
2022-10-07T04:28:19.896Z,77.30
2022-10-07T04:30:51.539Z,77.27
2022-10-07T04:33:22.919Z,76.77
2022-10-07T04:35:50.942Z,77.00
2022-10-07T04:38:18.844Z,76.92
2022-10-07T04:40:49.957Z,76.90
2022-10-07T04:43:23.124Z,77.40
2022-10-07T04:46:02.811Z,76.32
2022-10-07T04:48:29.860Z,77.13
2022-10-07T04:51:02.087Z,76.71
2022-10-07T04:53:29.211Z,76.67
2022-10-07T04:55:56.402Z,76.76
2022-10-07T04:58:24.393Z,77.00
2022-10-07T05:00:53.074Z,76.51
2022-10-07T05:03:25.750Z,76.57
2022-10-07T05:05:55.010Z,76.50
2022-10-07T05:08:24.900Z,75.92
2022-10-07T05:10:57.019Z,75.73
2022-10-07T05:13:26.200Z,76.19
2022-10-07T05:15:59.357Z,76.01
2022-10-07T05:18:28.416Z,76.72
2022-10-07T05:20:58.290Z,76.19
2022-10-07T05:23:31.435Z,75.32
2022-10-07T05:26:02.983Z,75.50
2022-10-07T05:28:30.662Z,75.79
2022-10-07T05:31:13.219Z,76.22
2022-10-07T05:33:42.777Z,75.48
2022-10-07T05:36:10.835Z,75.82
2022-10-07T05:38:37.698Z,77.10
2022-10-07T05:41:07.086Z,77.26
2022-10-07T05:43:39.815Z,76.70
2022-10-07T05:46:14.186Z,75.73
2022-10-07T05:48:46.998Z,76.67
2022-10-07T05:51:14.276Z,76.82
2022-10-07T05:53:42.847Z,76.42
2022-10-07T05:56:13.949Z,76.03
2022-10-07T05:58:41.147Z,75.91
2022-10-07T06:01:14.624Z,76.47
2022-10-07T06:03:43.912Z,76.87
2022-10-07T06:06:11.657Z,77.06
2022-10-07T06:08:38.426Z,76.94
2022-10-07T06:11:25.729Z,77.15
2022-10-07T06:13:54.669Z,76.41
2022-10-07T06:16:22.496Z,77.35
2022-10-07T06:18:52.233Z,77.23
2022-10-07T06:21:25.805Z,77.36
2022-10-07T06:23:53.128Z,76.61
2022-10-07T06:26:23.697Z,76.93
2022-10-07T06:28:51.311Z,77.23
2022-10-07T06:31:22.424Z,76.79
2022-10-07T06:33:50.406Z,76.29
2022-10-07T06:36:17.995Z,75.93
2022-10-07T06:38:48.611Z,75.76
2022-10-07T06:41:18.348Z,75.49
2022-10-07T06:43:46.833Z,75.26
2022-10-07T06:46:19.963Z,75.41
2022-10-07T06:48:50.476Z,75.46
2022-10-07T06:51:21.600Z,74.38
2022-10-07T06:53:57.834Z,74.47
2022-10-07T06:56:25.854Z,74.57
2022-10-07T06:58:52.761Z,75.59
2022-10-07T07:01:28.629Z,73.79
2022-10-07T07:03:56.030Z,73.95
2022-10-07T07:06:23.654Z,72.52
2022-10-07T07:08:51.098Z,72.48
2022-10-07T07:11:37.658Z,71.71
2022-10-07T07:14:12.287Z,70.82
2022-10-07T07:16:42.111Z,71.02
2022-10-07T07:19:12.340Z,71.75
2022-10-07T07:21:41.144Z,72.06
2022-10-07T07:24:11.404Z,71.06
2022-10-07T07:26:40.337Z,70.26
2022-10-07T07:29:10.964Z,69.86
2022-10-07T07:31:42.926Z,70.16
2022-10-07T07:34:12.969Z,69.59
2022-10-07T07:36:46.594Z,69.58
2022-10-07T07:39:17.557Z,69.57
2022-10-07T07:41:50.819Z,69.09
2022-10-07T07:44:20.189Z,69.39
2022-10-07T07:46:51.143Z,69.33
2022-10-07T07:49:21.100Z,68.18
2022-10-07T07:51:48.132Z,67.30
2022-10-07T07:54:22.258Z,66.57
2022-10-07T07:56:49.709Z,66.23
2022-10-07T07:59:19.398Z,66.68
2022-10-07T08:01:48.073Z,67.17
2022-10-07T08:04:16.045Z,66.56
2022-10-07T08:06:43.146Z,66.61
2022-10-07T08:09:09.872Z,66.49
2022-10-07T08:11:37.807Z,66.92
2022-10-07T08:14:04.662Z,67.66
2022-10-07T08:16:34.837Z,66.90
2022-10-07T08:19:01.673Z,66.71
2022-10-07T08:21:32.738Z,66.92
2022-10-07T08:24:02.706Z,65.87
2022-10-07T08:26:34.710Z,65.39
2022-10-07T08:29:04.734Z,64.81
2022-10-07T08:31:33.314Z,64.76
2022-10-07T08:34:01.895Z,64.90
2022-10-07T08:36:32.525Z,64.48
2022-10-07T08:39:00.650Z,64.25
2022-10-07T08:42:08.320Z,64.42
2022-10-07T08:44:40.965Z,63.62
2022-10-07T08:47:25.770Z,63.30
2022-10-07T08:50:03.863Z,63.51
2022-10-07T08:52:39.579Z,63.54
2022-10-07T08:55:28.227Z,63.01
2022-10-07T08:58:32.366Z,63.86
2022-10-07T09:01:26.289Z,64.18
2022-10-07T09:04:05.065Z,63.55
2022-10-07T09:06:40.187Z,63.36
2022-10-07T09:09:14.723Z,63.56
2022-10-07T09:11:45.235Z,63.88
2022-10-07T09:14:26.229Z,63.49
2022-10-07T09:16:56.530Z,61.79
2022-10-07T09:19:32.052Z,61.64
2022-10-07T09:22:19.504Z,61.01
2022-10-07T09:24:49.091Z,62.08
2022-10-07T09:27:18.175Z,61.17
2022-10-07T09:29:44.901Z,61.27
2022-10-07T09:32:14.208Z,61.59
2022-10-07T09:34:41.386Z,61.55
2022-10-07T09:37:24.557Z,61.41
2022-10-07T09:39:53.566Z,62.21
2022-10-07T09:42:43.128Z,62.08
2022-10-07T09:45:25.162Z,61.83
2022-10-07T09:47:55.346Z,61.85
2022-10-07T09:50:31.149Z,61.79
2022-10-07T09:52:58.070Z,60.94
2022-10-07T09:55:37.321Z,61.12
2022-10-07T09:58:26.843Z,60.50
2022-10-07T10:00:56.118Z,61.46
2022-10-07T10:03:33.968Z,60.96
2022-10-07T10:06:03.563Z,60.27
2022-10-07T10:08:33.942Z,60.17
2022-10-07T10:11:03.234Z,59.67
2022-10-07T10:13:33.857Z,59.81
2022-10-07T10:16:02.725Z,59.45
2022-10-07T10:18:52.945Z,59.22
2022-10-07T10:21:29.816Z,57.90
2022-10-07T10:23:59.279Z,57.75
2022-10-07T10:26:33.855Z,57.06
2022-10-07T10:29:25.633Z,57.38
2022-10-07T10:32:01.276Z,56.79
2022-10-07T10:34:52.583Z,56.30
2022-10-07T10:37:24.450Z,55.73
2022-10-07T10:40:19.145Z,55.56
2022-10-07T10:43:03.822Z,54.30
2022-10-07T10:45:58.537Z,54.02
2022-10-07T10:48:48.955Z,53.95
2022-10-07T10:51:46.370Z,55.19
2022-10-07T10:54:27.889Z,55.86
2022-10-07T10:57:01.766Z,55.92
2022-10-07T10:59:47.141Z,55.84
2022-10-07T11:02:35.774Z,54.99
2022-10-07T11:05:22.018Z,54.71
2022-10-07T11:08:17.306Z,55.58
2022-10-07T11:10:51.616Z,55.74
2022-10-07T11:13:21.167Z,55.46
2022-10-07T11:15:53.858Z,55.51
2022-10-07T11:18:32.709Z,55.30
2022-10-07T11:21:01.361Z,55.84
2022-10-07T11:23:41.273Z,56.58
2022-10-07T11:26:19.856Z,54.95
2022-10-07T11:28:47.577Z,54.44
2022-10-07T11:31:50.288Z,54.78
2022-10-07T11:34:19.354Z,54.68
2022-10-07T11:37:07.085Z,54.32
2022-10-07T11:39:38.042Z,54.24
2022-10-07T11:42:11.140Z,54.69
2022-10-07T11:44:55.648Z,53.90
2022-10-07T11:47:26.261Z,53.63
2022-10-07T11:50:18.290Z,52.89
2022-10-07T11:52:51.220Z,53.47
2022-10-07T11:55:32.629Z,53.69
2022-10-07T11:58:04.213Z,53.25
2022-10-07T12:00:34.692Z,53.89
2022-10-07T12:03:33.322Z,53.16
2022-10-07T12:06:13.022Z,53.33
2022-10-07T12:08:42.052Z,53.02
2022-10-07T12:11:12.340Z,53.11
2022-10-07T12:13:45.215Z,52.98
2022-10-07T12:16:24.082Z,52.98
2022-10-07T12:19:06.263Z,53.13
2022-10-07T12:22:02.876Z,52.28
2022-10-07T12:24:36.880Z,52.75
2022-10-07T12:27:28.907Z,53.25
2022-10-07T12:30:02.194Z,53.21
2022-10-07T12:32:48.033Z,53.76
2022-10-07T12:35:30.085Z,54.46
2022-10-07T12:38:24.557Z,54.05
2022-10-07T12:41:11.852Z,54.35
2022-10-07T12:43:50.718Z,55.04
2022-10-07T12:46:20.764Z,54.75
2022-10-07T12:48:59.604Z,55.22
2022-10-07T12:51:30.670Z,55.10
2022-10-07T12:53:59.363Z,54.92
2022-10-07T12:56:30.420Z,53.97
2022-10-07T12:59:30.962Z,54.27
2022-10-07T13:02:25.773Z,54.27
2022-10-07T13:05:17.284Z,55.24
2022-10-07T13:08:00.490Z,54.46
2022-10-07T13:11:00.516Z,54.87
2022-10-07T13:13:55.815Z,55.42
2022-10-07T13:16:31.923Z,55.66
2022-10-07T13:19:19.583Z,56.90
2022-10-07T13:22:13.361Z,57.16
2022-10-07T13:24:54.571Z,57.29
2022-10-07T13:27:27.866Z,58.50
2022-10-07T13:29:57.434Z,58.99
2022-10-07T13:32:35.229Z,59.06
2022-10-07T13:35:34.044Z,59.29
2022-10-07T13:38:03.562Z,59.36
2022-10-07T13:40:35.501Z,59.46
2022-10-07T13:43:07.031Z,59.16
2022-10-07T13:45:45.144Z,59.20
2022-10-07T13:48:25.086Z,59.64
2022-10-07T13:50:55.497Z,59.70
2022-10-07T13:53:34.774Z,59.27
2022-10-07T13:56:08.745Z,59.03
2022-10-07T13:58:37.003Z,59.12
2022-10-07T14:01:05.635Z,59.51
2022-10-07T14:03:32.618Z,59.29
2022-10-07T14:05:59.698Z,58.79
2022-10-07T14:08:28.286Z,58.20
2022-10-07T14:10:58.213Z,58.08
2022-10-07T14:13:27.510Z,57.85
2022-10-07T14:15:56.259Z,57.51
2022-10-07T14:18:23.681Z,57.45
2022-10-07T14:20:53.985Z,56.79
2022-10-07T14:23:25.042Z,56.78
2022-10-07T14:25:56.955Z,56.76
2022-10-07T14:28:23.841Z,56.09
2022-10-07T14:31:28.600Z,55.92
2022-10-07T14:34:38.917Z,55.53
2022-10-07T14:37:28.440Z,55.67
2022-10-07T14:39:58.710Z,55.39
2022-10-07T14:42:32.901Z,55.12
2022-10-07T14:45:03.212Z,55.09
2022-10-07T14:47:37.635Z,54.80
2022-10-07T14:50:04.731Z,55.06
2022-10-07T14:52:51.771Z,54.87
2022-10-07T14:55:23.565Z,54.62
2022-10-07T14:57:50.538Z,54.15
2022-10-07T15:00:23.041Z,54.01
2022-10-07T15:02:50.764Z,54.67
2022-10-07T15:05:21.710Z,56.06
2022-10-07T15:07:49.896Z,57.29
2022-10-07T15:10:19.805Z,58.21
2022-10-07T15:12:47.414Z,59.18
2022-10-07T15:15:15.076Z,59.46
2022-10-07T15:17:42.471Z,60.54
2022-10-07T15:20:11.878Z,59.93
2022-10-07T15:22:38.517Z,60.35
2022-10-07T15:25:07.638Z,61.66
2022-10-07T15:27:34.544Z,61.24
2022-10-07T15:30:01.210Z,60.59
2022-10-07T15:32:30.156Z,60.23
2022-10-07T15:34:58.042Z,60.40
2022-10-07T15:37:27.402Z,60.08
2022-10-07T15:39:54.825Z,60.52
2022-10-07T15:42:24.439Z,60.83
2022-10-07T15:44:51.367Z,61.68
2022-10-07T15:47:18.603Z,61.96
2022-10-07T15:49:45.350Z,60.94
2022-10-07T15:52:12.181Z,61.33
2022-10-07T15:54:39.321Z,62.00
2022-10-07T15:57:06.340Z,62.68
2022-10-07T15:59:33.042Z,62.23
2022-10-07T16:01:59.869Z,61.55
2022-10-07T16:04:26.776Z,61.63
2022-10-07T16:06:53.592Z,61.82
2022-10-07T16:09:22.138Z,61.84
2022-10-07T16:11:49.789Z,62.30
2022-10-07T16:14:16.672Z,62.73
2022-10-07T16:16:43.505Z,63.25
2022-10-07T16:19:11.721Z,62.41
2022-10-07T16:21:40.709Z,62.68
2022-10-07T16:24:13.133Z,63.21
2022-10-07T16:26:40.177Z,64.32
2022-10-07T16:29:30.319Z,64.52
2022-10-07T16:31:59.113Z,64.90
2022-10-07T16:34:28.211Z,65.07
2022-10-07T16:36:55.842Z,65.68
2022-10-07T16:39:22.820Z,65.82
2022-10-07T16:41:51.726Z,66.06
2022-10-07T16:44:19.687Z,65.96
2022-10-07T16:46:46.965Z,66.39
2022-10-07T16:49:17.164Z,66.72
2022-10-07T16:51:44.828Z,66.92
2022-10-07T16:54:16.712Z,66.92
2022-10-07T16:56:49.884Z,67.08
2022-10-07T16:59:23.732Z,67.67
2022-10-07T17:01:53.059Z,67.61
2022-10-07T17:04:20.283Z,67.39
2022-10-07T17:06:47.336Z,67.99
2022-10-07T17:09:14.056Z,67.77
2022-10-07T17:11:41.627Z,68.18
2022-10-07T17:14:11.749Z,68.23
2022-10-07T17:16:42.138Z,68.07
2022-10-07T17:19:12.070Z,68.47
2022-10-07T17:21:41.748Z,68.90
2022-10-07T17:24:09.803Z,69.16
2022-10-07T17:26:37.807Z,68.33
2022-10-07T17:29:07.735Z,69.37
2022-10-07T17:31:38.946Z,69.33
2022-10-07T17:34:07.009Z,69.60
2022-10-07T17:36:35.007Z,70.22
2022-10-07T17:39:01.971Z,70.75
2022-10-07T17:41:31.376Z,70.98
2022-10-07T17:44:00.997Z,71.11
2022-10-07T17:46:30.308Z,71.27
2022-10-07T17:48:59.177Z,71.27
2022-10-07T17:51:28.988Z,71.07
2022-10-07T17:53:57.768Z,71.89
2022-10-07T17:56:24.676Z,71.80
2022-10-07T17:58:51.426Z,70.62
2022-10-07T18:01:22.647Z,71.00
2022-10-07T18:04:15.268Z,71.29
2022-10-07T18:06:43.279Z,71.63
2022-10-07T18:09:13.735Z,72.26
2022-10-07T18:11:58.952Z,71.93
2022-10-07T18:14:44.333Z,72.33
2022-10-07T18:17:11.106Z,72.67
2022-10-07T18:19:39.574Z,73.04
2022-10-07T18:22:06.436Z,73.34
2022-10-07T18:24:33.208Z,73.42
2022-10-07T18:27:01.168Z,73.76
2022-10-07T18:29:29.434Z,73.85
2022-10-07T18:31:56.407Z,74.07
2022-10-07T18:34:23.508Z,74.04
2022-10-07T18:36:55.213Z,73.87
2022-10-07T18:39:23.258Z,73.52
2022-10-07T18:41:49.988Z,73.49
2022-10-07T18:44:16.727Z,72.74
2022-10-07T18:46:43.372Z,73.12
2022-10-07T18:49:13.499Z,73.11
2022-10-07T18:51:40.873Z,72.91
2022-10-07T18:54:07.605Z,73.63
2022-10-07T18:56:39.795Z,73.79
2022-10-07T18:59:09.475Z,73.75
2022-10-07T19:01:37.214Z,72.37
2022-10-07T19:04:04.901Z,72.44
2022-10-07T19:06:33.467Z,72.61
2022-10-07T19:09:02.627Z,73.11
2022-10-07T19:11:30.450Z,73.09
2022-10-07T19:13:59.055Z,73.96
2022-10-07T19:16:38.101Z,73.99
2022-10-07T19:19:14.830Z,74.21
2022-10-07T19:21:41.844Z,74.84
2022-10-07T19:24:08.800Z,75.29
2022-10-07T19:26:38.272Z,75.39
2022-10-07T19:29:06.613Z,75.74
2022-10-07T19:31:36.054Z,75.85
2022-10-07T19:34:05.495Z,75.78
2022-10-07T19:36:35.022Z,75.73
2022-10-07T19:39:03.281Z,75.63
2022-10-07T19:41:33.085Z,75.91
2022-10-07T19:44:00.649Z,76.26
2022-10-07T19:46:30.166Z,74.86
2022-10-07T19:48:58.813Z,73.86
2022-10-07T19:51:27.807Z,74.15
2022-10-07T19:53:57.259Z,74.72
2022-10-07T19:56:30.364Z,75.50
2022-10-07T19:59:05.318Z,76.41
2022-10-07T20:01:35.761Z,76.70
2022-10-07T20:04:15.044Z,76.76
2022-10-07T20:06:42.607Z,76.83
2022-10-07T20:09:12.326Z,77.15
2022-10-07T20:11:39.011Z,77.10
2022-10-07T20:14:06.609Z,76.88
2022-10-07T20:16:34.593Z,75.08
2022-10-07T20:19:05.754Z,75.46
2022-10-07T20:21:35.932Z,76.07
2022-10-07T20:24:03.462Z,74.71
2022-10-07T20:26:32.452Z,75.64
2022-10-07T20:29:00.960Z,76.67
2022-10-07T20:31:34.920Z,77.60
2022-10-07T20:34:03.040Z,77.53
2022-10-07T20:36:35.123Z,77.57
2022-10-07T20:39:26.321Z,77.16
2022-10-07T20:42:12.185Z,76.19
2022-10-07T20:44:39.283Z,75.53
2022-10-07T20:47:07.952Z,76.44
2022-10-07T20:49:37.170Z,77.16
2022-10-07T20:52:06.970Z,76.39
2022-10-07T20:54:33.703Z,76.47
2022-10-07T20:57:00.441Z,77.36
2022-10-07T20:59:29.162Z,78.32
2022-10-07T21:01:57.265Z,78.69
2022-10-07T21:04:28.560Z,78.52
2022-10-07T21:06:56.777Z,78.03
2022-10-07T21:09:24.901Z,78.01
2022-10-07T21:11:52.917Z,77.54
2022-10-07T21:14:19.990Z,77.13
2022-10-07T21:16:47.528Z,77.29
2022-10-07T21:19:15.291Z,76.74
2022-10-07T21:21:41.978Z,77.86
2022-10-07T21:24:08.868Z,78.34
2022-10-07T21:26:36.448Z,78.45
2022-10-07T21:29:04.979Z,78.38
2022-10-07T21:31:31.641Z,78.82
2022-10-07T21:34:01.537Z,78.58
2022-10-07T21:36:28.589Z,77.64
2022-10-07T21:38:58.284Z,77.87
2022-10-07T21:41:38.627Z,78.52
2022-10-07T21:44:11.422Z,79.77
2022-10-07T21:46:40.011Z,80.43
2022-10-07T21:49:07.674Z,80.64
2022-10-07T21:51:35.037Z,80.28
2022-10-07T21:54:02.887Z,80.57
2022-10-07T21:56:31.622Z,80.02
2022-10-07T21:59:01.185Z,79.95
2022-10-07T22:01:28.685Z,78.04
2022-10-07T22:03:59.721Z,77.56
2022-10-07T22:06:46.663Z,77.51
2022-10-07T22:09:18.470Z,77.56
2022-10-07T22:11:45.281Z,77.74
2022-10-07T22:14:13.065Z,77.53
2022-10-07T22:16:40.252Z,77.74
2022-10-07T22:19:07.638Z,79.23
2022-10-07T22:21:35.737Z,80.18
2022-10-07T22:24:05.100Z,78.47
2022-10-07T22:26:36.357Z,78.32
2022-10-07T22:29:03.121Z,78.08
2022-10-07T22:31:30.277Z,77.64
2022-10-07T22:33:59.760Z,77.38
2022-10-07T22:36:28.155Z,77.55
2022-10-07T22:39:02.165Z,78.53
2022-10-07T22:41:29.453Z,78.48
2022-10-07T22:43:56.307Z,78.94
2022-10-07T22:46:28.003Z,78.83
2022-10-07T22:48:58.387Z,79.73
2022-10-07T22:51:28.431Z,80.27
2022-10-07T22:53:56.291Z,81.10
2022-10-07T22:56:24.748Z,78.56
2022-10-07T22:58:57.928Z,78.45
2022-10-07T23:01:25.517Z,78.44
2022-10-07T23:03:52.767Z,79.63
2022-10-07T23:06:19.816Z,80.41
2022-10-07T23:08:47.843Z,79.52
2022-10-07T23:11:22.126Z,79.60
2022-10-07T23:13:50.960Z,79.91
2022-10-07T23:16:19.725Z,79.76
2022-10-07T23:18:48.244Z,79.36
2022-10-07T23:21:20.620Z,79.45
2022-10-07T23:23:49.979Z,79.53
2022-10-07T23:26:19.905Z,80.65
2022-10-07T23:28:49.376Z,81.94
2022-10-07T23:31:18.301Z,80.15
2022-10-07T23:33:51.665Z,81.24
2022-10-07T23:36:22.975Z,81.39
2022-10-07T23:38:51.109Z,81.10
2022-10-07T23:41:20.848Z,82.50
2022-10-07T23:43:49.654Z,83.00
2022-10-07T23:46:17.655Z,82.86
2022-10-07T23:48:44.393Z,82.69
2022-10-07T23:51:13.317Z,83.07
2022-10-07T23:53:40.038Z,83.54
2022-10-07T23:56:07.124Z,84.22
2022-10-07T23:58:34.878Z,84.25
